createdAt,value
2023-04-21T00:01:26.101Z,100729.69
2023-04-21T00:03:52.689Z,100728.59
2023-04-21T00:06:22.687Z,100727.22
2023-04-21T00:08:50.161Z,100724.69
2023-04-21T00:11:16.586Z,100717.63
2023-04-21T00:13:43.061Z,100716.75
2023-04-21T00:16:09.577Z,100723.97
2023-04-21T00:18:36.029Z,100715.59
2023-04-21T00:21:02.555Z,100712.41
2023-04-21T00:23:28.998Z,100716.72
2023-04-21T00:25:55.466Z,100721.94
2023-04-21T00:28:21.911Z,100713.63
2023-04-21T00:30:48.282Z,100707.25
2023-04-21T00:33:14.653Z,100697.13
2023-04-21T00:35:41.022Z,100704.88
2023-04-21T00:38:07.389Z,100692.41
2023-04-21T00:40:33.957Z,100692.63
2023-04-21T00:43:00.431Z,100688.94
2023-04-21T00:45:26.826Z,100696.75
2023-04-21T00:47:53.274Z,100692.72
2023-04-21T00:50:19.693Z,100706.59
2023-04-21T00:52:47.035Z,100700.47
2023-04-21T00:55:14.303Z,100698.66
2023-04-21T00:57:40.737Z,100705.44
2023-04-21T01:00:08.898Z,100689.38
2023-04-21T01:02:35.782Z,100691.06
2023-04-21T01:05:05.397Z,100689.28
2023-04-21T01:07:31.892Z,100693.31
2023-04-21T01:09:59.679Z,100693.06
2023-04-21T01:12:26.044Z,100696.56
2023-04-21T01:14:52.491Z,100695.81
2023-04-21T01:17:19.074Z,100695.34
2023-04-21T01:19:45.941Z,100703.78
2023-04-21T01:22:12.974Z,100701.84
2023-04-21T01:24:42.904Z,100700.22
2023-04-21T01:27:11.198Z,100701.09
2023-04-21T01:29:38.738Z,100696.97
2023-04-21T01:32:11.816Z,100698.84
2023-04-21T01:34:39.697Z,100696.72
2023-04-21T01:37:14.175Z,100701.91
2023-04-21T01:39:42.164Z,100693.13
2023-04-21T01:42:09.079Z,100688.44
2023-04-21T01:44:35.928Z,100696.34
2023-04-21T01:47:02.393Z,100701.19
2023-04-21T01:49:28.766Z,100697.03
2023-04-21T01:51:55.177Z,100699.72
2023-04-21T01:54:21.583Z,100692.41
2023-04-21T01:56:47.966Z,100696.69
2023-04-21T01:59:14.385Z,100700.81
2023-04-21T02:01:40.908Z,100696.97
2023-04-21T02:04:07.738Z,100696.13
2023-04-21T02:06:34.309Z,100688.84
2023-04-21T02:09:00.678Z,100697.38
2023-04-21T02:11:27.042Z,100694.66
2023-04-21T02:13:54.150Z,100693.56
2023-04-21T02:16:20.703Z,100698.81
2023-04-21T02:18:48.291Z,100704.97
2023-04-21T02:21:15.451Z,100698.22
2023-04-21T02:23:41.849Z,100693.31
2023-04-21T02:26:08.277Z,100692.88
2023-04-21T02:28:34.737Z,100682.84
2023-04-21T02:31:01.105Z,100683.13
2023-04-21T02:33:27.532Z,100679.13
2023-04-21T02:35:53.982Z,100685.06
2023-04-21T02:38:20.410Z,100671.16
2023-04-21T02:40:46.771Z,100681.59
2023-04-21T02:43:16.784Z,100673.47
2023-04-21T02:45:43.162Z,100669.69
2023-04-21T02:48:09.791Z,100663.59
2023-04-21T02:50:36.511Z,100658.28
2023-04-21T02:53:02.866Z,100664.72
2023-04-21T02:55:29.660Z,100662.91
2023-04-21T02:57:56.364Z,100655.22
2023-04-21T03:00:22.853Z,100647.53
2023-04-21T03:02:49.417Z,100635.75
2023-04-21T03:05:16.005Z,100627.06
2023-04-21T03:07:42.382Z,100647.63
2023-04-21T03:10:08.814Z,100670.00
2023-04-21T03:12:35.382Z,100660.19
2023-04-21T03:15:01.762Z,100654.28
2023-04-21T03:17:29.394Z,100657.72
2023-04-21T03:19:57.287Z,100673.38
2023-04-21T03:22:23.655Z,100665.00
2023-04-21T03:24:50.032Z,100673.03
2023-04-21T03:27:16.412Z,100679.56
2023-04-21T03:29:42.782Z,100670.06
2023-04-21T03:32:09.201Z,100671.25
2023-04-21T03:34:35.771Z,100672.56
2023-04-21T03:37:02.143Z,100672.41
2023-04-21T03:39:28.526Z,100671.66
2023-04-21T03:41:54.893Z,100677.16
2023-04-21T03:44:21.300Z,100679.09
2023-04-21T03:46:47.664Z,100676.56
2023-04-21T03:49:14.045Z,100681.38
2023-04-21T03:51:40.420Z,100672.28
2023-04-21T03:54:06.999Z,100677.34
2023-04-21T03:56:33.362Z,100682.59
2023-04-21T03:58:59.743Z,100680.19
2023-04-21T04:01:26.612Z,100677.66
2023-04-21T04:03:53.242Z,100676.56
2023-04-21T04:06:19.746Z,100682.94
2023-04-21T04:08:46.429Z,100676.66
2023-04-21T04:11:12.796Z,100676.44
2023-04-21T04:13:39.188Z,100679.34
2023-04-21T04:16:05.972Z,100676.34
2023-04-21T04:18:32.379Z,100673.63
2023-04-21T04:20:58.741Z,100662.34
2023-04-21T04:23:26.027Z,100672.66
2023-04-21T04:25:52.394Z,100678.06
2023-04-21T04:28:18.779Z,100663.13
2023-04-21T04:30:45.359Z,100668.69
2023-04-21T04:33:11.868Z,100679.47
2023-04-21T04:35:38.599Z,100679.72
2023-04-21T04:38:04.970Z,100680.78
2023-04-21T04:40:33.161Z,100681.38
2023-04-21T04:43:01.250Z,100669.41
2023-04-21T04:45:28.475Z,100677.91
2023-04-21T04:47:54.916Z,100682.66
2023-04-21T04:50:21.370Z,100683.53
2023-04-21T04:52:48.989Z,100689.63
2023-04-21T04:55:15.482Z,100684.56
2023-04-21T04:57:41.917Z,100669.75
2023-04-21T05:00:11.184Z,100676.47
2023-04-21T05:02:38.495Z,100693.31
2023-04-21T05:05:07.074Z,100692.94
2023-04-21T05:07:36.954Z,100695.09
2023-04-21T05:10:04.470Z,100695.72
2023-04-21T05:12:32.238Z,100686.56
2023-04-21T05:14:58.690Z,100688.44
2023-04-21T05:17:25.523Z,100693.53
2023-04-21T05:19:51.937Z,100702.44
2023-04-21T05:22:18.289Z,100692.34
2023-04-21T05:24:44.729Z,100695.47
2023-04-21T05:27:11.086Z,100693.22
2023-04-21T05:29:37.502Z,100688.34
2023-04-21T05:32:03.982Z,100685.47
2023-04-21T05:34:30.487Z,100681.63
2023-04-21T05:36:56.916Z,100687.72
2023-04-21T05:39:23.362Z,100688.72
2023-04-21T05:41:49.740Z,100692.63
2023-04-21T05:44:18.174Z,100696.47
2023-04-21T05:46:44.771Z,100699.03
2023-04-21T05:49:11.433Z,100702.91
2023-04-21T05:51:37.804Z,100701.69
2023-04-21T05:54:04.176Z,100707.06
2023-04-21T05:56:30.557Z,100709.78
2023-04-21T05:58:56.923Z,100692.50
2023-04-21T06:01:23.285Z,100704.38
2023-04-21T06:03:50.350Z,100704.81
2023-04-21T06:06:17.514Z,100697.13
2023-04-21T06:08:43.994Z,100705.22
2023-04-21T06:11:10.367Z,100702.19
2023-04-21T06:13:38.594Z,100705.03
2023-04-21T06:16:05.989Z,100707.84
2023-04-21T06:18:32.422Z,100695.81
2023-04-21T06:20:58.786Z,100697.34
2023-04-21T06:23:25.353Z,100689.91
2023-04-21T06:26:06.647Z,100687.44
2023-04-21T06:28:34.474Z,100694.84
2023-04-21T06:31:01.560Z,100690.25
2023-04-21T06:33:28.184Z,100689.09
2023-04-21T06:35:54.625Z,100697.72
2023-04-21T06:38:21.363Z,100696.09
2023-04-21T06:40:47.908Z,100688.34
2023-04-21T06:43:14.403Z,100697.28
2023-04-21T06:45:40.802Z,100680.63
2023-04-21T06:48:07.290Z,100684.00
2023-04-21T06:50:33.746Z,100678.59
2023-04-21T06:53:00.213Z,100675.56
2023-04-21T06:55:26.592Z,100674.75
2023-04-21T06:57:52.991Z,100674.34
2023-04-21T07:00:19.474Z,100675.78
2023-04-21T07:02:45.952Z,100673.88
2023-04-21T07:05:12.572Z,100671.84
2023-04-21T07:07:38.945Z,100670.25
2023-04-21T07:10:05.756Z,100677.25
2023-04-21T07:12:32.122Z,100666.63
2023-04-21T07:14:58.493Z,100666.16
2023-04-21T07:17:24.933Z,100669.97
2023-04-21T07:19:51.326Z,100661.53
2023-04-21T07:22:17.690Z,100662.94
2023-04-21T07:24:44.107Z,100667.66
2023-04-21T07:27:10.654Z,100653.75
2023-04-21T07:29:37.422Z,100658.78
2023-04-21T07:32:03.834Z,100660.97
2023-04-21T07:34:30.211Z,100654.41
2023-04-21T07:36:56.742Z,100653.41
2023-04-21T07:39:23.119Z,100656.13
2023-04-21T07:41:49.578Z,100654.19
2023-04-21T07:44:15.960Z,100656.41
2023-04-21T07:46:42.379Z,100654.25
2023-04-21T07:49:08.839Z,100657.03
2023-04-21T07:51:35.252Z,100648.44
2023-04-21T07:54:01.870Z,100654.53
2023-04-21T07:56:28.274Z,100649.03
2023-04-21T07:58:54.972Z,100643.41
2023-04-21T08:01:22.321Z,100644.00
2023-04-21T08:03:48.976Z,100651.72
2023-04-21T08:06:15.844Z,100636.16
2023-04-21T08:08:42.604Z,100645.25
2023-04-21T08:11:10.801Z,100639.28
2023-04-21T08:13:37.523Z,100637.38
2023-04-21T08:16:04.030Z,100638.56
2023-04-21T08:18:31.139Z,100634.00
2023-04-21T08:20:57.952Z,100634.19
2023-04-21T08:23:24.566Z,100633.56
2023-04-21T08:25:51.044Z,100637.75
2023-04-21T08:28:17.482Z,100634.44
2023-04-21T08:30:43.877Z,100639.75
2023-04-21T08:33:13.585Z,100631.06
2023-04-21T08:35:47.963Z,100636.34
2023-04-21T08:38:21.724Z,100644.75
2023-04-21T08:40:49.552Z,100642.06
2023-04-21T08:43:16.015Z,100637.28
2023-04-21T08:45:43.571Z,100647.41
2023-04-21T08:48:16.278Z,100642.00
2023-04-21T08:50:43.068Z,100640.16
2023-04-21T08:53:09.753Z,100648.06
2023-04-21T08:55:36.303Z,100647.16
2023-04-21T08:58:06.880Z,100643.56
2023-04-21T09:00:33.278Z,100642.19
2023-04-21T09:03:02.112Z,100645.16
2023-04-21T09:05:31.013Z,100650.38
2023-04-21T09:08:11.645Z,100648.56
2023-04-21T09:10:52.457Z,100642.91
2023-04-21T09:13:20.259Z,100640.06
2023-04-21T09:15:49.596Z,100644.09
2023-04-21T09:18:18.204Z,100639.97
2023-04-21T09:20:45.978Z,100642.34
2023-04-21T09:23:12.453Z,100643.09
2023-04-21T09:25:40.688Z,100642.38
2023-04-21T09:28:11.429Z,100637.63
2023-04-21T09:30:39.266Z,100644.47
2023-04-21T09:33:13.382Z,100633.19
2023-04-21T09:35:47.931Z,100634.81
2023-04-21T09:38:15.472Z,100641.59
2023-04-21T09:40:41.841Z,100642.50
2023-04-21T09:43:09.350Z,100639.28
2023-04-21T09:45:40.097Z,100629.16
2023-04-21T09:48:09.575Z,100637.50
2023-04-21T09:51:11.465Z,100637.22
2023-04-21T09:53:24.892Z,100635.41
2023-04-21T09:55:51.693Z,100628.44
2023-04-21T09:58:20.665Z,100627.25
2023-04-21T10:00:47.394Z,100621.59
2023-04-21T10:03:14.535Z,100617.66
2023-04-21T10:05:42.999Z,100619.16
2023-04-21T10:08:11.516Z,100611.91
2023-04-21T10:10:38.730Z,100605.81
2023-04-21T10:13:05.199Z,100610.47
2023-04-21T10:15:35.954Z,100607.50
2023-04-21T10:18:25.164Z,100600.53
2023-04-21T10:20:58.565Z,100600.53
2023-04-21T10:23:52.046Z,100590.13
2023-04-21T10:26:34.317Z,100585.19
2023-04-21T10:29:07.070Z,100580.38
2023-04-21T10:31:36.940Z,100591.53
2023-04-21T10:34:09.260Z,100581.75
2023-04-21T10:36:42.289Z,100584.03
2023-04-21T10:39:08.971Z,100577.38
2023-04-21T10:41:35.926Z,100577.72
2023-04-21T10:44:14.272Z,100575.31
2023-04-21T10:46:46.128Z,100583.97
2023-04-21T10:49:30.068Z,100579.56
2023-04-21T10:51:59.580Z,100580.28
2023-04-21T10:54:26.652Z,100561.44
2023-04-21T10:56:54.173Z,100568.72
2023-04-21T10:59:20.614Z,100565.69
2023-04-21T11:01:47.274Z,100552.78
2023-04-21T11:04:18.115Z,100553.75
2023-04-21T11:07:07.964Z,100547.97
2023-04-21T11:09:35.890Z,100537.53
2023-04-21T11:12:04.478Z,100544.75
2023-04-21T11:14:31.122Z,100543.69
2023-04-21T11:16:57.627Z,100535.63
2023-04-21T11:19:25.769Z,100538.81
2023-04-21T11:21:55.240Z,100533.19
2023-04-21T11:24:21.941Z,100533.34
2023-04-21T11:26:48.444Z,100524.59
2023-04-21T11:29:15.193Z,100520.88
2023-04-21T11:31:44.165Z,100516.94
2023-04-21T11:34:10.711Z,100507.06
2023-04-21T11:36:39.984Z,100501.28
2023-04-21T11:39:10.376Z,100493.06
2023-04-21T11:41:39.823Z,100498.47
2023-04-21T11:44:06.238Z,100497.50
2023-04-21T11:46:39.973Z,100488.28
2023-04-21T11:49:07.715Z,100491.16
2023-04-21T11:51:41.686Z,100474.78
2023-04-21T11:54:10.384Z,100483.66
2023-04-21T11:56:41.804Z,100476.72
2023-04-21T11:59:12.081Z,100475.69
2023-04-21T12:01:49.187Z,100474.25
2023-04-21T12:04:17.544Z,100466.88
2023-04-21T12:06:54.817Z,100467.38
2023-04-21T12:09:21.431Z,100454.94
2023-04-21T12:11:52.058Z,100464.06
2023-04-21T12:14:20.674Z,100455.78
2023-04-21T12:16:54.868Z,100453.84
2023-04-21T12:19:41.258Z,100457.69
2023-04-21T12:22:12.086Z,100453.22
2023-04-21T12:24:38.690Z,100448.19
2023-04-21T12:27:05.696Z,100445.31
2023-04-21T12:29:33.889Z,100431.69
2023-04-21T12:32:00.500Z,100434.56
2023-04-21T12:34:27.007Z,100431.91
2023-04-21T12:36:53.401Z,100434.88
2023-04-21T12:39:20.397Z,100429.97
2023-04-21T12:41:49.731Z,100432.13
2023-04-21T12:44:16.268Z,100417.38
2023-04-21T12:46:42.756Z,100406.28
2023-04-21T12:49:10.019Z,100401.50
2023-04-21T12:51:36.658Z,100400.09
2023-04-21T12:54:03.361Z,100400.13
2023-04-21T12:56:30.002Z,100397.06
2023-04-21T12:58:56.410Z,100389.31
2023-04-21T13:01:22.859Z,100389.50
2023-04-21T13:03:49.446Z,100393.41
2023-04-21T13:06:15.981Z,100396.34
2023-04-21T13:08:42.376Z,100392.97
2023-04-21T13:11:08.736Z,100391.34
2023-04-21T13:13:35.215Z,100377.66
2023-04-21T13:16:01.613Z,100374.56
2023-04-21T13:18:27.989Z,100378.00
2023-04-21T13:20:54.364Z,100360.25
2023-04-21T13:23:20.774Z,100357.09
2023-04-21T13:25:47.184Z,100355.53
2023-04-21T13:28:14.302Z,100342.91
2023-04-21T13:30:40.777Z,100337.19
2023-04-21T13:33:07.201Z,100329.59
2023-04-21T13:35:33.588Z,100328.31
2023-04-21T13:38:00.077Z,100322.56
2023-04-21T13:40:26.537Z,100321.28
2023-04-21T13:42:52.936Z,100316.84
2023-04-21T13:45:19.321Z,100315.72
2023-04-21T13:47:46.384Z,100315.44
2023-04-21T13:50:12.833Z,100317.16
2023-04-21T13:52:39.236Z,100308.72
2023-04-21T13:55:05.999Z,100306.09
2023-04-21T13:57:32.499Z,100305.84
2023-04-21T13:59:58.935Z,100300.91
2023-04-21T14:02:25.908Z,100294.66
2023-04-21T14:04:53.388Z,100293.38
2023-04-21T14:07:20.393Z,100301.03
2023-04-21T14:09:46.807Z,100295.19
2023-04-21T14:12:13.270Z,100281.41
2023-04-21T14:14:39.717Z,100282.81
2023-04-21T14:17:07.185Z,100276.50
2023-04-21T14:19:34.722Z,100276.03
2023-04-21T14:22:01.502Z,100275.81
2023-04-21T14:24:29.912Z,100267.09
2023-04-21T14:26:57.428Z,100265.28
2023-04-21T14:29:23.841Z,100265.94
2023-04-21T14:31:50.544Z,100262.13
2023-04-21T14:34:17.054Z,100257.78
2023-04-21T14:36:43.483Z,100257.34
2023-04-21T14:39:10.247Z,100258.03
2023-04-21T14:41:36.715Z,100258.56
2023-04-21T14:44:03.797Z,100250.03
2023-04-21T14:46:30.305Z,100254.94
2023-04-21T14:48:57.506Z,100252.97
2023-04-21T14:51:23.963Z,100247.22
2023-04-21T14:53:51.139Z,100249.09
2023-04-21T14:56:18.658Z,100249.72
2023-04-21T14:58:45.135Z,100234.56
2023-04-21T15:01:11.593Z,100244.84
2023-04-21T15:03:38.245Z,100236.97
2023-04-21T15:06:04.889Z,100235.44
2023-04-21T15:08:31.251Z,100236.03
2023-04-21T15:10:57.986Z,100226.75
2023-04-21T15:13:24.474Z,100226.16
2023-04-21T15:15:52.109Z,100230.03
2023-04-21T15:18:18.739Z,100223.50
2023-04-21T15:20:45.933Z,100223.69
2023-04-21T15:23:12.915Z,100223.81
2023-04-21T15:25:40.296Z,100226.25
2023-04-21T15:28:07.405Z,100218.47
2023-04-21T15:30:33.915Z,100212.41
2023-04-21T15:33:01.232Z,100219.22
2023-04-21T15:35:27.646Z,100215.13
2023-04-21T15:37:54.138Z,100209.78
2023-04-21T15:40:20.532Z,100201.19
2023-04-21T15:42:47.037Z,100208.09
2023-04-21T15:45:13.444Z,100205.47
2023-04-21T15:47:39.926Z,100201.38
2023-04-21T15:50:07.030Z,100195.53
2023-04-21T15:52:35.860Z,100190.44
2023-04-21T15:55:02.293Z,100187.81
2023-04-21T15:57:29.634Z,100183.31
2023-04-21T15:59:56.006Z,100177.81
2023-04-21T16:02:22.712Z,100171.47
2023-04-21T16:04:49.324Z,100167.38
2023-04-21T16:07:15.822Z,100166.19
2023-04-21T16:09:42.354Z,100168.44
2023-04-21T16:12:10.284Z,100166.72
2023-04-21T16:14:53.625Z,100157.75
2023-04-21T16:17:24.168Z,100149.34
2023-04-21T16:19:52.677Z,100146.16
2023-04-21T16:22:20.297Z,100138.50
2023-04-21T16:24:46.818Z,100136.44
2023-04-21T16:27:13.287Z,100118.06
2023-04-21T16:29:39.718Z,100107.31
2023-04-21T16:32:06.786Z,100103.47
2023-04-21T16:34:33.385Z,100088.09
2023-04-21T16:37:00.156Z,100090.91
2023-04-21T16:39:27.615Z,100092.25
2023-04-21T16:41:53.987Z,100102.25
2023-04-21T16:44:20.475Z,100099.97
2023-04-21T16:46:46.934Z,100087.69
2023-04-21T16:49:13.603Z,100090.66
2023-04-21T16:51:44.519Z,100080.69
2023-04-21T16:54:11.619Z,100078.19
2023-04-21T16:56:38.445Z,100075.22
2023-04-21T16:59:05.360Z,100075.13
2023-04-21T17:01:31.957Z,100081.63
2023-04-21T17:03:58.838Z,100067.38
2023-04-21T17:06:25.448Z,100070.53
2023-04-21T17:08:59.208Z,100064.81
2023-04-21T17:11:27.296Z,100066.53
2023-04-21T17:13:53.854Z,100070.25
2023-04-21T17:16:20.376Z,100063.09
2023-04-21T17:18:46.815Z,100073.94
2023-04-21T17:21:13.194Z,100081.84
2023-04-21T17:23:39.617Z,100082.06
2023-04-21T17:26:06.374Z,100090.72
2023-04-21T17:28:32.885Z,100099.69
2023-04-21T17:31:13.754Z,100103.50
2023-04-21T17:33:42.387Z,100099.63
2023-04-21T17:36:08.840Z,100095.69
2023-04-21T17:38:35.408Z,100095.31
2023-04-21T17:41:02.170Z,100094.03
2023-04-21T17:43:28.685Z,100080.94
2023-04-21T17:45:55.164Z,100075.91
2023-04-21T17:48:21.715Z,100077.75
2023-04-21T17:50:48.136Z,100074.91
2023-04-21T17:53:14.553Z,100075.47
2023-04-21T17:55:41.020Z,100074.78
2023-04-21T17:58:09.395Z,100069.13
2023-04-21T18:00:38.140Z,100076.19
2023-04-21T18:03:04.928Z,100079.53
2023-04-21T18:05:32.106Z,100074.63
2023-04-21T18:07:58.712Z,100077.00
2023-04-21T18:10:26.436Z,100074.34
2023-04-21T18:12:54.658Z,100070.38
2023-04-21T18:15:21.073Z,100075.16
2023-04-21T18:17:47.614Z,100074.00
2023-04-21T18:20:14.925Z,100073.72
2023-04-21T18:22:43.594Z,100078.19
2023-04-21T18:25:11.689Z,100077.94
2023-04-21T18:27:41.526Z,100080.78
2023-04-21T18:30:09.105Z,100071.88
2023-04-21T18:32:36.366Z,100077.91
2023-04-21T18:35:03.569Z,100074.03
2023-04-21T18:37:30.343Z,100086.38
2023-04-21T18:39:57.415Z,100090.41
2023-04-21T18:42:27.721Z,100091.59
2023-04-21T18:44:57.082Z,100080.84
2023-04-21T18:47:24.566Z,100076.84
2023-04-21T18:49:51.461Z,100079.91
2023-04-21T18:52:17.862Z,100081.41
2023-04-21T18:54:44.229Z,100082.16
2023-04-21T18:57:10.836Z,100081.97
2023-04-21T18:59:37.237Z,100085.28
2023-04-21T19:02:05.943Z,100094.41
2023-04-21T19:04:32.465Z,100090.75
2023-04-21T19:06:58.839Z,100085.59
2023-04-21T19:09:27.113Z,100089.22
2023-04-21T19:11:53.497Z,100102.25
2023-04-21T19:14:19.898Z,100104.66
2023-04-21T19:16:47.384Z,100112.06
2023-04-21T19:19:13.776Z,100117.59
2023-04-21T19:21:40.357Z,100109.53
2023-04-21T19:24:06.818Z,100109.25
2023-04-21T19:26:33.184Z,100112.81
2023-04-21T19:28:59.583Z,100114.47
2023-04-21T19:31:26.400Z,100113.31
2023-04-21T19:33:52.788Z,100106.78
2023-04-21T19:36:19.147Z,100104.75
2023-04-21T19:38:45.579Z,100109.63
2023-04-21T19:41:11.934Z,100116.41
2023-04-21T19:43:38.284Z,100115.31
2023-04-21T19:46:04.708Z,100112.59
2023-04-21T19:48:31.345Z,100116.03
2023-04-21T19:50:57.801Z,100121.25
2023-04-21T19:53:24.220Z,100120.16
2023-04-21T19:55:52.569Z,100115.19
2023-04-21T19:58:31.951Z,100121.91
2023-04-21T20:01:05.038Z,100121.25
2023-04-21T20:03:31.653Z,100114.06
2023-04-21T20:05:58.397Z,100112.38
2023-04-21T20:08:24.765Z,100106.25
2023-04-21T20:10:51.107Z,100097.63
2023-04-21T20:13:17.473Z,100106.97
2023-04-21T20:15:44.012Z,100110.34
2023-04-21T20:18:10.776Z,100115.19
2023-04-21T20:20:37.291Z,100132.88
2023-04-21T20:23:03.842Z,100124.41
2023-04-21T20:25:30.836Z,100133.41
2023-04-21T20:27:57.473Z,100121.25
2023-04-21T20:30:23.873Z,100141.19
2023-04-21T20:32:50.430Z,100210.91
2023-04-21T20:35:17.112Z,100232.84
2023-04-21T20:37:44.353Z,100227.19
2023-04-21T20:40:11.768Z,100212.63
2023-04-21T20:42:38.761Z,100185.28
2023-04-21T20:45:06.399Z,100172.44
2023-04-21T20:47:33.922Z,100160.00
2023-04-21T20:50:00.468Z,100147.28
2023-04-21T20:52:26.940Z,100121.91
2023-04-21T20:54:53.322Z,100118.97
2023-04-21T20:57:19.779Z,100112.06
2023-04-21T20:59:46.187Z,100100.84
2023-04-21T21:02:12.690Z,100122.72
2023-04-21T21:04:39.317Z,100125.56
2023-04-21T21:07:06.276Z,100132.03
2023-04-21T21:09:32.759Z,100135.44
2023-04-21T21:11:59.272Z,100138.59
2023-04-21T21:14:25.875Z,100143.94
2023-04-21T21:16:54.510Z,100149.31
2023-04-21T21:19:21.791Z,100168.91
2023-04-21T21:21:48.147Z,100164.69
2023-04-21T21:24:14.511Z,100173.84
2023-04-21T21:26:42.715Z,100177.94
2023-04-21T21:29:09.341Z,100183.38
2023-04-21T21:31:35.793Z,100179.94
2023-04-21T21:34:03.837Z,100184.78
2023-04-21T21:36:31.691Z,100186.38
2023-04-21T21:38:58.115Z,100178.97
2023-04-21T21:41:24.573Z,100180.84
2023-04-21T21:43:51.035Z,100181.63
2023-04-21T21:46:18.574Z,100185.66
2023-04-21T21:48:45.190Z,100172.84
2023-04-21T21:51:11.957Z,100182.06
2023-04-21T21:53:38.391Z,100184.19
2023-04-21T21:56:05.059Z,100182.75
2023-04-21T21:58:31.604Z,100179.50
2023-04-21T22:00:58.085Z,100179.25
2023-04-21T22:03:24.755Z,100165.75
2023-04-21T22:05:52.146Z,100154.03
2023-04-21T22:08:18.540Z,100171.03
2023-04-21T22:10:45.133Z,100162.19
2023-04-21T22:13:11.994Z,100164.59
2023-04-21T22:15:38.776Z,100150.97
2023-04-21T22:18:05.489Z,100153.16
2023-04-21T22:20:32.085Z,100154.34
2023-04-21T22:22:59.125Z,100150.91
2023-04-21T22:25:27.089Z,100145.41
2023-04-21T22:27:56.980Z,100152.91
2023-04-21T22:30:23.457Z,100160.81
2023-04-21T22:32:49.995Z,100151.53
2023-04-21T22:35:16.761Z,100156.59
2023-04-21T22:37:43.166Z,100158.53
2023-04-21T22:40:10.346Z,100149.59
2023-04-21T22:42:37.025Z,100159.84
2023-04-21T22:45:05.240Z,100163.00
2023-04-21T22:47:33.328Z,100154.66
2023-04-21T22:49:59.779Z,100159.19
2023-04-21T22:52:26.850Z,100167.59
2023-04-21T22:54:53.569Z,100164.00
2023-04-21T22:57:21.371Z,100173.72
2023-04-21T22:59:47.839Z,100172.50
2023-04-21T23:02:14.333Z,100167.22
2023-04-21T23:04:40.827Z,100166.28
2023-04-21T23:07:07.669Z,100170.66
2023-04-21T23:09:34.088Z,100164.66
2023-04-21T23:12:01.358Z,100172.94
2023-04-21T23:14:27.806Z,100173.00
2023-04-21T23:16:54.425Z,100175.47
2023-04-21T23:19:20.905Z,100166.13
2023-04-21T23:21:47.332Z,100157.47
2023-04-21T23:24:13.965Z,100161.28
2023-04-21T23:26:41.068Z,100164.75
2023-04-21T23:29:07.521Z,100163.88
2023-04-21T23:31:34.217Z,100156.38
2023-04-21T23:34:00.746Z,100161.78
2023-04-21T23:36:27.146Z,100163.66
2023-04-21T23:38:53.872Z,100164.88
2023-04-21T23:41:20.727Z,100171.75
2023-04-21T23:43:47.137Z,100165.22
2023-04-21T23:46:14.954Z,100168.78
2023-04-21T23:48:41.476Z,100172.25
2023-04-21T23:51:07.984Z,100165.91
2023-04-21T23:53:34.439Z,100164.38
2023-04-21T23:56:00.913Z,100171.34
2023-04-21T23:58:28.031Z,100160.63
